| time (UTC) | temp F | wind direction | speed MPH | gust MPH | rain 1hr in | rain 24hr in | rain mn in | humidity % | barometer mb |
| 20260906230022 | 77 | 119 | 2.0 | 5.0 | 0.00 | 0.00 | 0.00 | 68 | 1015.5 |
| 20260906224520 | 78 | 154 | 3.0 | 6.0 | 0.00 | 0.00 | 0.00 | 67 | 1015.4 |
| 20260906223020 | 79 | 97 | 3.0 | 6.0 | 0.00 | 0.00 | 0.00 | 67 | 1015.4 |
| 20260906221516 | 78 | 117 | 3.0 | 9.0 | 0.00 | 0.00 | 0.00 | 67 | 1015.5 |
| 20260906220014 | 78 | 108 | 1.0 | 7.0 | 0.00 | 0.00 | 0.00 | 68 | 1015.4 |
| 20260906214511 | 78 | 164 | 4.0 | 7.0 | 0.00 | 0.00 | 0.00 | 66 | 1015.5 |
| 20260906213010 | 79 | 138 | 3.0 | 7.0 | 0.00 | 0.00 | 0.00 | 66 | 1015.7 |
| 20260906211508 | 79 | 162 | 3.0 | 7.0 | 0.00 | 0.00 | 0.00 | 65 | 1015.8 |
| 20260906210004 | 79 | 168 | 3.0 | 9.0 | 0.00 | 0.00 | 0.00 | 65 | 1015.8 |
| 20260906204503 | 79 | 161 | 4.0 | 11.0 | 0.00 | 0.00 | 0.00 | 65 | 1015.9 |
| 20260906203001 | 80 | 173 | 4.0 | 10.0 | 0.00 | 0.00 | 0.00 | 62 | 1015.8 |
| 20260906201607 | 80 | 149 | 3.0 | 10.0 | 0.00 | 0.00 | 0.00 | 62 | 1016.1 |
| 20260906200055 | 81 | 183 | 5.0 | 11.0 | 0.00 | 0.00 | 0.00 | 60 | 1016.2 |
| 20260906194552 | 81 | 124 | 6.0 | 10.0 | 0.00 | 0.00 | 0.00 | 59 | 1016.3 |
| 20260906193052 | 81 | 176 | 6.0 | 12.0 | 0.00 | 0.00 | 0.00 | 59 | 1016.4 |
| 20260906191549 | 81 | 115 | 7.0 | 12.0 | 0.00 | 0.00 | 0.00 | 57 | 1016.3 |
| 20260906190049 | 81 | 117 | 7.0 | 11.0 | 0.00 | 0.00 | 0.00 | 58 | 1016.5 |
| 20260906184554 | 80 | 169 | 5.0 | 13.0 | 0.00 | 0.00 | 0.00 | 59 | 1016.5 |
| 20260906183043 | 81 | 121 | 8.0 | 13.0 | 0.00 | 0.00 | 0.00 | 60 | 1016.4 |
| 20260906181536 | 80 | 119 | 9.0 | 13.0 | 0.00 | 0.00 | 0.00 | 62 | 1016.6 |
| 20260906180053 | 80 | 94 | 8.0 | 13.0 | 0.00 | 0.00 | 0.00 | 62 | 1016.9 |
| 20260906174534 | 81 | 111 | 5.0 | 13.0 | 0.00 | 0.00 | 0.00 | 62 | 1017.1 |
| 20260906173026 | 82 | 76 | 5.0 | 10.0 | 0.00 | 0.00 | 0.00 | 63 | 1017.2 |
| 20260906171525 | 81 | 140 | 8.0 | 11.0 | 0.00 | 0.00 | 0.00 | 64 | 1017.2 |
| 20260906170100 | 81 | 188 | 4.0 | 11.0 | 0.00 | 0.00 | 0.00 | 65 | 1017.1 |
| 20260906164547 | 78 | 160 | 4.0 | 11.0 | 0.00 | 0.00 | 0.00 | 68 | 1017.3 |
| 20260906163042 | 77 | 132 | 4.0 | 10.0 | 0.00 | 0.00 | 0.00 | 71 | 1017.3 |
| 20260906161533 | 77 | 142 | 4.0 | 12.0 | 0.00 | 0.00 | 0.00 | 70 | 1017.3 |
| 20260906160030 | 76 | 110 | 6.0 | 12.0 | 0.00 | 0.00 | 0.00 | 72 | 1017.5 |
| 20260906154529 | 77 | 126 | 0.0 | 9.0 | 0.00 | 0.00 | 0.00 | 71 | 1017.6 |
| 20260906153027 | 76 | 164 | 6.0 | 11.0 | 0.00 | 0.00 | 0.00 | 70 | 1017.6 |
| 20260906151527 | 77 | 144 | 5.0 | 12.0 | 0.00 | 0.00 | 0.00 | 71 | 1017.7 |
| 20260906150029 | 73 | 200 | 2.0 | 7.0 | 0.00 | 0.00 | 0.00 | 78 | 1017.8 |
| 20260906144526 | 72 | 188 | 4.0 | 8.0 | 0.00 | 0.00 | 0.00 | 79 | 1017.6 |
| 20260906143029 | 72 | 167 | 4.0 | 11.0 | 0.00 | 0.00 | 0.00 | 81 | 1017.4 |
| 20260906141529 | 71 | 149 | 5.0 | 12.0 | 0.00 | 0.00 | 0.00 | 83 | 1017.5 |
| 20260906140030 | 71 | 155 | 6.0 | 13.0 | 0.00 | 0.00 | 0.00 | 84 | 1017.5 |
| 20260906134518 | 70 | 171 | 5.0 | 10.0 | 0.00 | 0.00 | 0.00 | 86 | 1017.4 |
| 20260906133016 | 69 | 109 | 6.0 | 12.0 | 0.00 | 0.00 | 0.00 | 88 | 1017.3 |
| 20260906131530 | 69 | 158 | 2.0 | 8.0 | 0.00 | 0.00 | 0.00 | 89 | 1017.2 |
| 20260906130015 | 69 | 167 | 5.0 | 9.0 | 0.00 | 0.00 | 0.00 | 90 | 1017.0 |
| 20260906124513 | 69 | 175 | 3.0 | 7.0 | 0.00 | 0.00 | 0.00 | 90 | 1017.0 |
| 20260906123043 | 68 | 155 | 3.0 | 8.0 | 0.00 | 0.00 | 0.00 | 91 | 1017.1 |
| 20260906121540 | 68 | 176 | 5.0 | 10.0 | 0.00 | 0.00 | 0.00 | 91 | 1017.0 |
| 20260906120037 | 68 | 142 | 2.0 | 6.0 | 0.00 | 0.00 | 0.00 | 91 | 1016.8 |
| 20260906114537 | 68 | 115 | 0.0 | 4.0 | 0.00 | 0.00 | 0.00 | 91 | 1016.8 |
| 20260906113039 | 67 | 172 | 0.0 | 3.0 | 0.00 | 0.00 | 0.00 | 91 | 1016.5 |
| 20260906111533 | 67 | 170 | 0.0 | 6.0 | 0.00 | 0.00 | 0.00 | 91 | 1016.3 |
| 20260906110030 | 67 | 214 | 1.0 | 5.0 | 0.00 | 0.00 | 0.00 | 92 | 1016.1 |
| 20260906104535 | 67 | 169 | 4.0 | 6.0 | 0.00 | 0.00 | 0.00 | 93 | 1016.1 |
| 20260906103028 | 67 | 159 | 4.0 | 10.0 | 0.00 | 0.00 | 0.00 | 93 | 1016.0 |
| 20260906101527 | 67 | 182 | 1.0 | 10.0 | 0.00 | 0.00 | 0.00 | 93 | 1016.1 |
| 20260906100058 | 67 | 165 | 5.0 | 9.0 | 0.00 | 0.00 | 0.00 | 93 | 1015.7 |
| 20260906094557 | 66 | 195 | 3.0 | 5.0 | 0.00 | 0.00 | 0.00 | 94 | 1015.7 |
| 20260906093035 | 65 | 173 | 1.0 | 3.0 | 0.00 | 0.00 | 0.00 | 94 | 1015.4 |
| 20260906091524 | 64 | 180 | 0.0 | 2.0 | 0.00 | 0.00 | 0.00 | 93 | 1015.3 |
| 20260906090023 | 64 | 216 | 0.0 | 1.0 | 0.00 | 0.00 | 0.00 | 93 | 1015.2 |
| 20260906084530 | 65 | 217 | 0.0 | 1.0 | 0.00 | 0.00 | 0.00 | 93 | 1015.3 |
| 20260906083019 | 65 | 196 | 0.0 | 2.0 | 0.00 | 0.00 | 0.00 | 93 | 1015.1 |
| 20260906081517 | 67 | 207 | 0.0 | 0.0 | 0.00 | 0.00 | 0.00 | 93 | 1015.3 |
| 20260906080027 | 67 | 194 | 0.0 | 0.0 | 0.00 | 0.00 | 0.00 | 93 | 1015.4 |
| 20260906074514 | 68 | 256 | 0.0 | 2.0 | 0.00 | 0.00 | 0.00 | 93 | 1015.5 |
| 20260906073013 | 67 | 248 | 0.0 | 0.0 | 0.00 | 0.00 | 0.00 | 92 | 1015.4 |
| 20260906071512 | 67 | 248 | 0.0 | 0.0 | 0.00 | 0.00 | 0.00 | 92 | 1015.3 |
| 20260906070010 | 67 | 250 | 0.0 | 0.0 | 0.00 | 0.00 | 0.00 | 93 | 1015.6 |
| 20260906064514 | 66 | 250 | 0.0 | 0.0 | 0.00 | 0.00 | 0.00 | 92 | 1015.6 |
| 20260906063008 | 67 | 269 | 0.0 | 1.0 | 0.00 | 0.00 | 0.00 | 93 | 1015.6 |
| 20260906061512 | 66 | 220 | 0.0 | 0.0 | 0.00 | 0.00 | 0.00 | 93 | 1015.7 |
| 20260906060008 | 66 | 220 | 0.0 | 0.0 | 0.00 | 0.00 | 0.00 | 93 | 1015.7 |
| 20260906054506 | 66 | 216 | 0.0 | 0.0 | 0.00 | 0.00 | 0.00 | 92 | 1015.7 |
| 20260906053004 | 66 | 216 | 0.0 | 0.0 | 0.00 | 0.00 | 0.00 | 92 | 1015.7 |
| 20260906051506 | 66 | 216 | 0.0 | 0.0 | 0.00 | 0.00 | 0.00 | 92 | 1015.6 |
| 20260906050033 | 66 | 216 | 0.0 | 0.0 | 0.00 | 0.00 | 0.00 | 92 | 1015.6 |
| 20260906044532 | 66 | 216 | 0.0 | 0.0 | 0.00 | 0.00 | 0.00 | 92 | 1015.8 |
| 20260906043031 | 67 | 227 | 0.0 | 0.0 | 0.00 | 0.00 | 0.00 | 92 | 1015.9 |
| 20260906041527 | 67 | 227 | 0.0 | 0.0 | 0.00 | 0.00 | 0.00 | 91 | 1015.9 |
| 20260906040030 | 68 | 253 | 0.0 | 1.0 | 0.00 | 0.00 | 0.00 | 92 | 1015.9 |
| 20260906034534 | 67 | 253 | 0.0 | 0.0 | 0.00 | 0.00 | 0.00 | 91 | 1015.8 |
| 20260906033028 | 68 | 254 | 1.0 | 3.0 | 0.00 | 0.00 | 0.00 | 90 | 1015.8 |
| 20260906031519 | 68 | 241 | 0.0 | 0.0 | 0.00 | 0.00 | 0.00 | 90 | 1015.5 |
| 20260906030016 | 69 | 240 | 0.0 | 1.0 | 0.00 | 0.00 | 0.00 | 90 | 1015.4 |
| 20260906024514 | 69 | 217 | 0.0 | 1.0 | 0.00 | 0.00 | 0.00 | 91 | 1015.0 |
| 20260906023013 | 69 | 217 | 0.0 | 0.0 | 0.00 | 0.00 | 0.00 | 89 | 1014.7 |
| 20260906021510 | 69 | 217 | 0.0 | 0.0 | 0.00 | 0.00 | 0.00 | 89 | 1014.4 |
| 20260906020009 | 69 | 187 | 0.0 | 2.0 | 0.00 | 0.00 | 0.00 | 89 | 1014.2 |
| 20260906014520 | 70 | 223 | 0.0 | 2.0 | 0.00 | 0.00 | 0.00 | 88 | 1013.8 |
| 20260906013008 | 70 | 220 | 0.0 | 2.0 | 0.00 | 0.00 | 0.00 | 87 | 1013.6 |
| 20260906011600 | 71 | 217 | 0.0 | 2.0 | 0.00 | 0.00 | 0.00 | 86 | 1013.6 |
| 20260906011505 | 71 | 222 | 0.0 | 2.0 | 0.00 | 0.00 | 0.00 | 86 | 1013.5 |
| 20260906010111 | 72 | 213 | 0.0 | 0.0 | 0.00 | 0.00 | 0.00 | 85 | 1013.5 |
| 20260906004554 | 73 | 242 | 0.0 | 0.0 | 0.00 | 0.00 | 0.00 | 82 | 1013.3 |
| 20260906003108 | 74 | 223 | 0.0 | 3.0 | 0.00 | 0.00 | 0.00 | 81 | 1013.0 |
| 20260906001548 | 76 | 240 | 0.0 | 3.0 | 0.00 | 0.00 | 0.00 | 77 | 1013.0 |
| 20260906000043 | 78 | 211 | 1.0 | 9.0 | 0.00 | 0.00 | 0.00 | 73 | 1012.8 |
| 20260905234542 | 79 | 115 | 3.0 | 11.0 | 0.00 | 0.00 | 0.00 | 72 | 1012.9 |
| 20260905233042 | 79 | 120 | 6.0 | 11.0 | 0.00 | 0.00 | 0.00 | 72 | 1012.8 |
| 20260905231541 | 79 | 119 | 4.0 | 13.0 | 0.00 | 0.00 | 0.00 | 72 | 1012.7 |